Time;durP1;ratioP1;P1;durP2;ratioP2;P2;SDS_P1;SDS_P2;PMS_P1;PMS_P2;Temp;Humidity;BMP_temperature;BMP_pressure;BME280_temperature;BME280_humidity;BME280_pressure;Samples;Min_cycle;Max_cycle;Signal;HPM_P1;HPM_P2
2023/12/22 00:01:55;;;;;;;15.65;10.07;;;;;;;3.24;100.00;91572.78;5134630;27;20046;-80
2023/12/22 00:04:22;;;;;;;15.65;8.93;;;;;;;3.29;100.00;91575.47;5144063;27;20051;-82
2023/12/22 00:06:51;;;;;;;14.70;8.55;;;;;;;3.30;100.00;91559.28;5132862;27;20520;-80
2023/12/22 00:09:19;;;;;;;14.38;7.95;;;;;;;3.30;100.00;91566.13;5133309;27;20459;-80
2023/12/22 00:11:46;;;;;;;13.63;8.80;;;;;;;3.39;100.00;91559.81;5141743;27;20047;-81
2023/12/22 00:14:12;;;;;;;11.80;7.55;;;;;;;3.33;100.00;91556.34;5136531;27;20806;-81
2023/12/22 00:16:39;;;;;;;10.38;6.68;;;;;;;3.40;100.00;91553.75;5133323;27;20057;-81
2023/12/22 00:19:06;;;;;;;9.85;6.28;;;;;;;3.46;100.00;91555.47;5133283;27;20039;-80
2023/12/22 00:21:33;;;;;;;9.23;5.75;;;;;;;3.48;99.45;91552.72;5139915;27;20437;-80
2023/12/22 00:24:02;;;;;;;7.55;5.40;;;;;;;3.60;98.72;91547.72;5134789;27;20054;-81
2023/12/22 00:26:29;;;;;;;7.53;5.18;;;;;;;3.65;97.33;91531.88;5135478;27;20565;-80
2023/12/22 00:28:55;;;;;;;7.68;4.15;;;;;;;3.65;96.80;91532.66;5135198;27;20049;-80
2023/12/22 00:31:22;;;;;;;5.28;3.45;;;;;;;3.75;96.57;91516.94;5142075;27;20083;-79
2023/12/22 00:33:49;;;;;;;5.93;3.53;;;;;;;3.76;95.36;91520.25;5136316;27;20049;-79
2023/12/22 00:36:17;;;;;;;7.97;3.65;;;;;;;3.86;94.85;91533.25;5144791;27;20522;-80
2023/12/22 00:38:44;;;;;;;4.55;3.58;;;;;;;3.82;94.70;91530.38;5131766;27;20486;-80
2023/12/22 00:41:13;;;;;;;6.40;3.85;;;;;;;3.86;93.52;91523.09;5135004;27;20050;-80
2023/12/22 00:43:40;;;;;;;6.45;4.93;;;;;;;3.89;93.42;91522.66;5138541;27;20142;-81
2023/12/22 00:46:07;;;;;;;6.38;3.83;;;;;;;3.92;93.97;91508.75;5133439;27;20051;-79
2023/12/22 00:48:34;;;;;;;5.15;3.15;;;;;;;3.84;93.54;91508.06;5134271;27;20068;-79
2023/12/22 00:51:01;;;;;;;5.30;3.40;;;;;;;3.97;92.85;91517.31;5134621;27;20490;-79
2023/12/22 00:53:28;;;;;;;6.93;4.20;;;;;;;3.85;93.32;91494.38;5135190;27;20051;-79
2023/12/22 00:55:55;;;;;;;7.00;3.80;;;;;;;3.99;93.07;91501.88;5141083;27;20505;-79
2023/12/22 00:58:23;;;;;;;5.65;3.20;;;;;;;4.12;93.24;91500.97;5134666;27;20053;-79
2023/12/22 01:00:50;;;;;;;5.57;4.10;;;;;;;4.15;92.27;91510.69;5142552;27;20154;-78
2023/12/22 01:03:17;;;;;;;9.98;6.28;;;;;;;4.16;91.77;91501.31;5134034;27;20042;-78
2023/12/22 01:05:44;;;;;;;6.40;3.75;;;;;;;4.23;91.13;91502.78;5131595;27;20065;-77
2023/12/22 01:08:11;;;;;;;6.85;4.65;;;;;;;4.16;90.66;91486.06;5134499;27;20055;-78
2023/12/22 01:10:37;;;;;;;5.95;4.20;;;;;;;4.33;90.24;91514.19;5132530;27;20061;-78
2023/12/22 01:13:04;;;;;;;7.80;4.63;;;;;;;4.41;89.76;91512.13;5132659;27;20043;-77
2023/12/22 01:15:33;;;;;;;12.40;6.63;;;;;;;4.40;89.45;91484.41;5130659;27;20046;-77
2023/12/22 01:18:00;;;;;;;13.30;6.57;;;;;;;4.54;89.74;91506.13;5133812;27;20049;-77
2023/12/22 01:20:26;;;;;;;21.08;9.43;;;;;;;4.62;89.50;91511.91;5148853;27;20053;-77
2023/12/22 01:22:53;;;;;;;15.50;7.28;;;;;;;4.63;89.45;91506.59;5133264;27;20414;-77
2023/12/22 01:25:20;;;;;;;15.02;7.22;;;;;;;4.66;89.00;91513.81;5132249;27;20070;-77
2023/12/22 01:27:48;;;;;;;15.75;7.97;;;;;;;4.68;89.43;91511.06;5131003;27;20047;-77
2023/12/22 01:30:15;;;;;;;8.80;5.05;;;;;;;4.60;88.88;91507.03;5137459;27;20498;-79
2023/12/22 01:32:44;;;;;;;5.82;3.78;;;;;;;4.63;88.35;91498.22;5132752;27;20038;-77
2023/12/22 01:35:11;;;;;;;5.43;3.60;;;;;;;4.56;88.27;91498.28;5139506;27;20552;-75
2023/12/22 01:37:38;;;;;;;5.15;3.08;;;;;;;4.51;88.76;91478.59;5128636;27;20053;-76
2023/12/22 01:40:06;;;;;;;5.28;3.53;;;;;;;4.48;88.51;91481.56;5132700;27;20438;-75
2023/12/22 01:42:33;;;;;;;5.00;3.15;;;;;;;4.44;88.52;91461.88;5129855;27;20047;-76
2023/12/22 01:45:00;;;;;;;5.30;3.50;;;;;;;4.45;88.96;91473.59;5133826;27;20049;-76
2023/12/22 01:47:28;;;;;;;5.53;3.25;;;;;;;4.35;88.89;91469.78;5135447;27;20058;-76
2023/12/22 01:49:56;;;;;;;4.88;3.28;;;;;;;4.47;88.32;91481.78;5143653;27;20049;-76
2023/12/22 01:52:24;;;;;;;48.08;27.45;;;;;;;4.51;88.76;91476.06;5139473;27;20053;-76
2023/12/22 01:54:50;;;;;;;7.25;5.38;;;;;;;4.78;88.41;91478.22;5133992;27;20042;-76
2023/12/22 01:57:19;;;;;;;13.77;8.07;;;;;;;4.82;88.42;91481.91;5139236;27;20043;-76
2023/12/22 01:59:47;;;;;;;18.80;11.35;;;;;;;4.76;88.35;91475.13;5136086;27;20055;-78
2023/12/22 02:02:14;;;;;;;73.55;37.22;;;;;;;4.78;88.09;91480.00;5135624;27;20487;-78
2023/12/22 02:04:42;;;;;;;45.60;26.73;;;;;;;4.67;88.75;91502.66;5133633;27;20053;-78
2023/12/22 02:07:11;;;;;;;58.75;34.10;;;;;;;4.76;88.88;91492.16;5135573;27;20059;-77
2023/12/22 02:09:38;;;;;;;17.83;11.32;;;;;;;4.68;88.53;91476.22;5139164;27;20050;-77
2023/12/22 02:12:05;;;;;;;23.48;13.30;;;;;;;4.82;88.64;91491.31;5131924;27;20043;-76
2023/12/22 02:14:32;;;;;;;12.30;7.72;;;;;;;4.74;89.32;91487.31;5133068;27;20084;-76
2023/12/22 02:17:15;;;;;;;15.65;7.47;;;;;;;4.68;89.18;91473.66;5133255;27;20158;-77
2023/12/22 02:19:44;;;;;;;10.52;5.88;;;;;;;4.79;89.30;91484.09;5130169;27;20051;-76
2023/12/22 02:22:13;;;;;;;10.52;5.68;;;;;;;4.74;89.55;91471.25;5133793;27;20053;-76
2023/12/22 02:24:42;;;;;;;9.25;6.35;;;;;;;4.72;89.72;91474.00;5129999;27;20054;-76
2023/12/22 02:27:16;;;;;;;9.48;5.93;;;;;;;4.72;89.83;91471.47;5135820;27;20051;-77
2023/12/22 02:29:49;;;;;;;29.73;18.38;;;;;;;4.72;90.02;91470.72;5134393;27;20130;-77
2023/12/22 02:32:23;;;;;;;10.63;6.60;;;;;;;4.73;89.89;91473.03;5131524;27;20043;-76
2023/12/22 02:34:53;;;;;;;11.68;7.10;;;;;;;4.43;89.86;91424.72;5131656;27;20866;-76
2023/12/22 02:37:22;;;;;;;8.85;6.05;;;;;;;4.61;90.61;91462.03;5135963;27;20047;-76
2023/12/22 02:39:52;;;;;;;7.38;4.85;;;;;;;4.55;90.06;91472.06;5137299;27;20051;-77
2023/12/22 02:42:23;;;;;;;8.30;4.70;;;;;;;4.60;90.12;91461.28;5131449;27;20162;-78
2023/12/22 02:44:51;;;;;;;10.65;6.10;;;;;;;4.58;90.24;91457.41;5130279;27;20135;-78
2023/12/22 02:47:18;;;;;;;9.00;5.63;;;;;;;4.61;89.96;91462.81;5132319;27;20409;-78
2023/12/22 02:49:45;;;;;;;7.68;5.00;;;;;;;4.59;89.83;91453.84;5132278;27;20498;-78
2023/12/22 02:52:12;;;;;;;10.07;5.22;;;;;;;4.59;89.46;91446.22;5129386;27;20043;-77
2023/12/22 02:54:39;;;;;;;9.68;6.05;;;;;;;4.61;89.81;91444.22;5133401;27;20039;-77
2023/12/22 02:57:08;;;;;;;17.20;9.70;;;;;;;4.65;89.39;91435.19;5129928;27;20088;-77
2023/12/22 02:59:35;;;;;;;8.65;5.47;;;;;;;4.51;89.48;91426.97;5132192;27;20050;-75
2023/12/22 03:02:02;;;;;;;10.73;6.13;;;;;;;4.63;89.40;91432.09;5132444;27;20047;-75
2023/12/22 03:04:29;;;;;;;12.43;5.15;;;;;;;4.58;89.21;91434.50;5136486;27;20052;-75
2023/12/22 03:06:56;;;;;;;7.28;5.00;;;;;;;4.61;89.52;91434.06;5129857;27;20530;-75
2023/12/22 03:09:23;;;;;;;9.60;5.38;;;;;;;4.66;89.32;91436.72;5131445;27;20047;-75
2023/12/22 03:11:51;;;;;;;11.10;5.80;;;;;;;4.55;89.33;91410.28;5135913;27;20051;-75
2023/12/22 03:14:20;;;;;;;10.98;6.75;;;;;;;4.72;90.30;91438.41;5129994;27;20115;-76
2023/12/22 03:16:47;;;;;;;8.07;5.03;;;;;;;4.63;90.24;91439.72;5133873;27;20043;-76
2023/12/22 03:19:13;;;;;;;7.18;4.70;;;;;;;4.61;90.38;91428.97;5133749;27;20050;-76
2023/12/22 03:21:40;;;;;;;6.25;4.47;;;;;;;4.66;90.44;91429.88;5128988;27;20047;-75
2023/12/22 03:24:07;;;;;;;8.00;4.32;;;;;;;4.63;90.16;91425.22;5132566;27;20069;-76
2023/12/22 03:26:34;;;;;;;7.50;4.30;;;;;;;4.71;90.27;91424.13;5128649;27;20493;-75
2023/12/22 03:29:01;;;;;;;7.40;4.50;;;;;;;4.59;90.09;91411.41;5134128;27;20040;-75
2023/12/22 03:31:29;;;;;;;7.53;5.10;;;;;;;4.70;90.04;91425.13;5128143;27;20517;-75
2023/12/22 03:33:56;;;;;;;9.32;5.43;;;;;;;4.67;90.40;91426.34;5132070;27;20042;-75
2023/12/22 03:36:23;;;;;;;8.57;4.75;;;;;;;4.65;90.13;91415.63;5133328;27;20047;-75
2023/12/22 03:38:50;;;;;;;6.97;5.03;;;;;;;4.72;90.09;91417.28;5145540;27;20051;-75
2023/12/22 03:41:17;;;;;;;8.07;4.43;;;;;;;4.61;90.39;91404.31;5141441;27;20410;-76
2023/12/22 03:43:44;;;;;;;7.65;4.15;;;;;;;4.61;90.17;91396.69;5130816;27;20053;-76
2023/12/22 03:46:11;;;;;;;6.10;4.05;;;;;;;4.67;90.36;91403.44;5133954;27;20069;-76
2023/12/22 03:48:39;;;;;;;6.75;4.00;;;;;;;4.64;90.54;91405.66;5145418;27;20046;-75
2023/12/22 03:51:06;;;;;;;7.15;4.68;;;;;;;4.62;91.09;91407.63;5128966;27;20509;-76
2023/12/22 03:53:33;;;;;;;6.82;4.70;;;;;;;4.68;91.15;91410.09;5128483;27;20039;-76
2023/12/22 03:56:00;;;;;;;6.85;4.50;;;;;;;4.65;91.25;91414.84;5135545;27;20079;-76
2023/12/22 03:58:27;;;;;;;8.65;5.22;;;;;;;4.73;90.87;91406.91;5130181;27;20053;-75
2023/12/22 04:00:54;;;;;;;10.88;7.10;;;;;;;4.75;90.88;91415.09;5136075;27;20038;-76
2023/12/22 04:03:21;;;;;;;10.48;6.78;;;;;;;4.77;90.82;91414.88;5133063;27;20391;-75
2023/12/22 04:05:49;;;;;;;12.00;6.53;;;;;;;4.82;90.34;91409.91;5129272;27;20057;-75
2023/12/22 04:08:16;;;;;;;10.57;6.35;;;;;;;4.84;90.35;91407.13;5130700;27;20154;-75
2023/12/22 04:10:44;;;;;;;16.02;6.22;;;;;;;4.93;89.89;91418.53;5130729;27;20047;-75
2023/12/22 04:13:11;;;;;;;12.32;6.80;;;;;;;4.88;90.27;91410.78;5128826;27;20507;-74
2023/12/22 04:15:38;;;;;;;10.50;5.22;;;;;;;4.82;91.09;91417.53;5132930;27;20059;-74
2023/12/22 04:18:06;;;;;;;9.77;5.03;;;;;;;4.68;92.51;91406.78;5131993;27;20097;-75
2023/12/22 04:20:33;;;;;;;9.60;5.05;;;;;;;4.71;94.33;91413.97;5132144;27;20047;-75
2023/12/22 04:23:01;;;;;;;9.40;4.82;;;;;;;4.66;95.97;91424.78;5133527;27;20045;-75
2023/12/22 04:25:28;;;;;;;8.68;5.55;;;;;;;4.65;96.62;91413.06;5132688;27;20047;-75
2023/12/22 04:27:55;;;;;;;9.85;5.10;;;;;;;4.67;97.41;91413.63;5133964;27;20042;-74
2023/12/22 04:30:22;;;;;;;7.38;4.20;;;;;;;4.74;98.46;91417.84;5134068;27;20544;-74
2023/12/22 04:32:49;;;;;;;8.48;4.88;;;;;;;4.58;99.51;91407.28;5135193;27;20061;-74
2023/12/22 04:35:16;;;;;;;9.35;5.80;;;;;;;4.66;99.24;91414.63;5138625;27;20035;-74
2023/12/22 04:37:43;;;;;;;11.98;5.47;;;;;;;4.67;100.00;91413.63;5134670;27;20049;-75
2023/12/22 04:40:13;;;;;;;6.55;4.97;;;;;;;4.72;100.00;91420.59;5139325;27;20048;-75
2023/12/22 04:42:39;;;;;;;10.15;6.07;;;;;;;4.67;100.00;91416.16;5134958;27;20054;-75
2023/12/22 04:45:07;;;;;;;9.50;5.68;;;;;;;4.64;100.00;91414.03;5133873;27;20049;-74
2023/12/22 04:47:34;;;;;;;12.65;5.80;;;;;;;4.69;100.00;91415.97;5133762;27;20130;-74
2023/12/22 04:50:01;;;;;;;8.90;5.65;;;;;;;4.68;100.00;91412.63;5132805;27;20073;-74
2023/12/22 04:52:28;;;;;;;8.23;4.40;;;;;;;4.67;100.00;91413.63;5137098;27;20054;-74
2023/12/22 04:54:56;;;;;;;7.90;4.97;;;;;;;4.66;100.00;91418.94;5131910;27;20095;-74
2023/12/22 04:57:24;;;;;;;8.07;5.30;;;;;;;4.63;100.00;91409.19;5136363;27;20047;-75
2023/12/22 04:59:51;;;;;;;8.02;5.07;;;;;;;4.46;100.00;91392.03;5139625;27;20809;-74
2023/12/22 05:02:18;;;;;;;8.43;5.38;;;;;;;4.46;100.00;91401.41;5135330;27;20042;-74
2023/12/22 05:04:45;;;;;;;8.32;5.60;;;;;;;4.52;100.00;91398.00;5133223;27;20073;-74
2023/12/22 05:07:11;;;;;;;9.18;5.40;;;;;;;4.43;100.00;91406.94;5140266;27;20051;-74
2023/12/22 05:09:38;;;;;;;6.57;4.70;;;;;;;4.40;100.00;91398.75;5131268;27;20054;-74
2023/12/22 05:12:06;;;;;;;7.80;4.55;;;;;;;4.33;100.00;91399.81;5135187;27;20043;-74
2023/12/22 05:14:35;;;;;;;7.65;4.65;;;;;;;4.33;100.00;91403.16;5141464;27;20038;-74
2023/12/22 05:17:02;;;;;;;8.82;5.05;;;;;;;4.36;100.00;91402.69;5136774;27;20050;-74
2023/12/22 05:19:28;;;;;;;7.95;4.80;;;;;;;4.24;100.00;91396.81;5139618;27;20055;-74
2023/12/22 05:21:56;;;;;;;9.13;4.70;;;;;;;4.28;100.00;91405.56;5130655;27;20050;-74
2023/12/22 05:24:23;;;;;;;7.80;5.03;;;;;;;4.22;100.00;91394.47;5140149;27;20051;-74
2023/12/22 05:26:50;;;;;;;9.98;5.47;;;;;;;4.01;100.00;91380.47;5131786;27;20051;-74
2023/12/22 05:29:17;;;;;;;10.05;6.28;;;;;;;4.17;100.00;91401.19;5131506;27;20045;-74
2023/12/22 05:31:45;;;;;;;7.78;4.85;;;;;;;4.18;100.00;91403.53;5135976;27;20050;-74
2023/12/22 05:34:12;;;;;;;7.50;4.65;;;;;;;4.10;100.00;91403.81;5130091;27;20509;-74
2023/12/22 05:36:39;;;;;;;7.00;5.15;;;;;;;4.09;100.00;91403.06;5133999;27;20043;-74
2023/12/22 05:39:07;;;;;;;8.32;4.57;;;;;;;4.13;100.00;91408.50;5130893;27;20057;-74
2023/12/22 05:41:36;;;;;;;6.43;4.78;;;;;;;4.06;100.00;91403.47;5130111;27;20039;-75
2023/12/22 05:44:03;;;;;;;7.28;4.75;;;;;;;4.10;100.00;91398.75;5130030;27;20513;-73
2023/12/22 05:46:30;;;;;;;8.88;4.35;;;;;;;3.98;100.00;91402.00;5131484;27;20042;-73
2023/12/22 05:48:59;;;;;;;11.38;5.28;;;;;;;4.03;100.00;91403.88;5132619;27;20039;-74
2023/12/22 05:51:26;;;;;;;8.15;5.57;;;;;;;4.02;100.00;91402.34;5130073;27;20058;-74
2023/12/22 05:53:54;;;;;;;8.15;5.50;;;;;;;3.98;100.00;91391.84;5138617;27;20039;-74
2023/12/22 05:56:22;;;;;;;8.05;5.63;;;;;;;3.95;100.00;91391.50;5137752;27;20054;-75
2023/12/22 05:58:50;;;;;;;8.88;5.22;;;;;;;4.00;100.00;91389.09;5134064;27;20569;-75
2023/12/22 06:01:18;;;;;;;10.70;6.47;;;;;;;3.91;100.00;91373.38;5134109;27;20578;-74
2023/12/22 06:03:45;;;;;;;10.40;7.18;;;;;;;4.07;100.00;91392.31;5131391;27;20491;-74
2023/12/22 06:06:13;;;;;;;9.80;7.35;;;;;;;4.06;100.00;91390.78;5134338;27;20048;-74
2023/12/22 06:08:41;;;;;;;13.18;8.25;;;;;;;4.10;100.00;91383.50;5132434;27;20079;-74
2023/12/22 06:11:08;;;;;;;13.43;9.38;;;;;;;4.14;100.00;91392.25;5135297;27;20043;-74
2023/12/22 06:13:35;;;;;;;13.45;7.18;;;;;;;4.16;100.00;91392.03;5138691;27;20149;-74
2023/12/22 06:16:02;;;;;;;8.25;5.93;;;;;;;4.11;100.00;91390.13;5130628;27;20157;-74
2023/12/22 06:18:29;;;;;;;6.95;5.57;;;;;;;4.07;100.00;91381.41;5143839;27;20043;-75
2023/12/22 06:20:56;;;;;;;12.30;8.60;;;;;;;4.30;100.00;91402.81;5132782;27;20053;-75
2023/12/22 06:23:24;;;;;;;12.63;8.93;;;;;;;4.37;100.00;91409.34;5134571;27;20154;-75
2023/12/22 06:25:51;;;;;;;14.65;10.15;;;;;;;4.35;100.00;91410.56;5133541;27;20047;-75
2023/12/22 06:28:18;;;;;;;18.40;10.15;;;;;;;4.31;100.00;91405.13;5133045;27;20050;-75
2023/12/22 06:30:46;;;;;;;14.52;7.97;;;;;;;4.26;100.00;91410.09;5138736;27;20066;-75
2023/12/22 06:33:14;;;;;;;14.07;8.75;;;;;;;3.98;100.00;91396.94;5131072;27;20051;-74
2023/12/22 06:35:41;;;;;;;16.42;9.57;;;;;;;4.08;100.00;91405.81;5135597;27;20150;-75
2023/12/22 06:38:10;;;;;;;17.83;12.45;;;;;;;4.04;100.00;91405.47;5134166;27;20039;-74
2023/12/22 06:40:39;;;;;;;15.48;11.23;;;;;;;4.08;100.00;91405.81;5136879;27;20035;-75
2023/12/22 06:43:05;;;;;;;13.77;7.93;;;;;;;4.12;100.00;91399.31;5130689;27;20043;-75
2023/12/22 06:45:32;;;;;;;9.43;6.15;;;;;;;4.16;100.00;91405.50;5137878;27;20043;-75
2023/12/22 06:47:59;;;;;;;10.63;6.22;;;;;;;4.06;100.00;91405.22;5128488;27;20587;-75
2023/12/22 06:50:26;;;;;;;11.63;5.70;;;;;;;4.20;100.00;91410.91;5136991;27;20039;-75
2023/12/22 06:52:53;;;;;;;10.13;6.18;;;;;;;4.15;100.00;91409.03;5128059;27;20504;-76
2023/12/22 06:55:20;;;;;;;9.48;6.38;;;;;;;4.26;100.00;91412.63;5137744;27;20049;-76
2023/12/22 06:57:48;;;;;;;10.90;6.97;;;;;;;4.29;100.00;91407.09;5135660;27;20047;-76
2023/12/22 07:00:16;;;;;;;9.77;6.25;;;;;;;4.29;100.00;91407.09;5135945;27;20078;-76
2023/12/22 07:02:44;;;;;;;10.45;6.50;;;;;;;4.30;100.00;91411.19;5133871;27;20049;-76
2023/12/22 07:05:36;;;;;;;10.65;6.95;;;;;;;4.31;100.00;91412.75;5135264;27;20050;-76
2023/12/22 07:08:07;;;;;;;8.38;5.63;;;;;;;4.30;100.00;91403.56;5142561;27;20055;-75
2023/12/22 07:10:33;;;;;;;8.63;6.68;;;;;;;4.28;100.00;91413.97;5137064;27;20046;-76
2023/12/22 07:13:02;;;;;;;12.25;7.40;;;;;;;4.35;100.00;91416.41;5132086;27;20043;-76
2023/12/22 07:15:29;;;;;;;10.40;7.43;;;;;;;4.34;100.00;91417.41;5139038;27;20051;-75
2023/12/22 07:17:56;;;;;;;10.23;7.22;;;;;;;4.43;100.00;91424.72;5130363;27;20049;-75
2023/12/22 07:20:23;;;;;;;13.00;7.63;;;;;;;4.33;100.00;91420.94;5131367;27;20050;-75
2023/12/22 07:22:50;;;;;;;11.88;7.00;;;;;;;4.40;100.00;91426.69;5133904;27;20049;-75
2023/12/22 07:25:19;;;;;;;14.00;7.80;;;;;;;4.43;100.00;91422.94;5136609;27;20047;-75
2023/12/22 07:27:46;;;;;;;11.55;7.65;;;;;;;4.45;100.00;91428.63;5131459;27;20079;-76
2023/12/22 07:30:16;;;;;;;13.30;9.60;;;;;;;4.40;100.00;91429.25;5130502;27;20487;-76
2023/12/22 07:32:51;;;;;;;11.02;6.78;;;;;;;4.52;100.00;91433.59;5130426;27;20047;-76
2023/12/22 07:35:18;;;;;;;9.98;7.05;;;;;;;4.42;100.00;91426.50;5130561;27;20051;-76
2023/12/22 07:37:45;;;;;;;10.35;5.38;;;;;;;4.35;100.00;91425.81;5133288;27;20405;-76
2023/12/22 07:40:13;;;;;;;7.15;5.05;;;;;;;4.37;100.00;91441.63;5134165;27;20051;-76
2023/12/22 07:42:40;;;;;;;6.65;4.53;;;;;;;4.41;100.00;91427.50;5129968;27;20494;-76
2023/12/22 07:45:09;;;;;;;10.60;5.85;;;;;;;4.48;100.00;91435.00;5131045;27;20050;-77
2023/12/22 07:47:37;;;;;;;6.65;5.10;;;;;;;4.43;100.00;91425.50;5132325;27;20051;-76
2023/12/22 07:50:08;;;;;;;8.85;6.45;;;;;;;4.45;100.00;91438.00;5133089;27;20090;-77
2023/12/22 07:52:37;;;;;;;9.20;6.43;;;;;;;4.50;100.00;91435.59;5131750;27;20150;-77
2023/12/22 07:55:06;;;;;;;6.57;5.22;;;;;;;4.55;100.00;91444.09;5139398;27;20047;-76
2023/12/22 07:57:33;;;;;;;11.95;7.75;;;;;;;4.54;100.00;91442.56;5140123;27;20046;-76
2023/12/22 08:00:00;;;;;;;9.57;7.28;;;;;;;4.50;100.00;91453.38;5139602;27;20337;-77
2023/12/22 08:02:28;;;;;;;27.35;16.73;;;;;;;4.68;100.00;91455.09;5140091;27;20127;-76
2023/12/22 08:04:56;;;;;;;26.08;15.60;;;;;;;4.72;100.00;91456.19;5135858;27;20095;-76
2023/12/22 08:07:23;;;;;;;28.45;18.02;;;;;;;4.66;100.00;91462.94;5138762;27;20054;-76
2023/12/22 08:09:50;;;;;;;29.67;14.80;;;;;;;4.46;100.00;91444.63;5132978;27;20057;-75
2023/12/22 08:12:17;;;;;;;57.15;29.13;;;;;;;4.61;100.00;91473.00;5135610;27;20584;-75
2023/12/22 08:14:44;;;;;;;52.70;25.38;;;;;;;4.52;100.00;91476.81;5135362;27;20068;-75
2023/12/22 08:17:13;;;;;;;53.53;23.13;;;;;;;4.66;100.00;91472.34;5133218;27;20088;-75
2023/12/22 08:19:42;;;;;;;61.33;25.48;;;;;;;4.64;100.00;91479.41;5133172;27;20422;-76
2023/12/22 08:22:09;;;;;;;45.85;20.08;;;;;;;4.73;100.00;91478.13;5135036;27;20486;-75
2023/12/22 08:24:36;;;;;;;51.90;23.13;;;;;;;4.67;100.00;91476.41;5133873;27;20051;-75
2023/12/22 08:27:04;;;;;;;60.13;25.08;;;;;;;4.75;100.00;91471.03;5131482;27;20042;-76
2023/12/22 08:29:30;;;;;;;74.78;32.45;;;;;;;4.80;100.00;91480.56;5133580;27;20050;-76
2023/12/22 08:31:57;;;;;;;82.95;38.22;;;;;;;4.80;100.00;91488.19;5132327;27;20038;-76
2023/12/22 08:34:24;;;;;;;71.65;33.90;;;;;;;4.86;100.00;91496.72;5104241;28;20043;-77
2023/12/22 08:36:51;;;;;;;74.93;36.78;;;;;;;4.80;100.00;91488.19;5106357;28;20052;-76
2023/12/22 08:39:20;;;;;;;67.68;34.03;;;;;;;4.80;100.00;91491.53;5109779;28;20047;-76
2023/12/22 08:41:47;;;;;;;55.63;31.10;;;;;;;4.82;100.00;91481.13;5108959;28;20042;-76
2023/12/22 08:44:15;;;;;;;47.90;25.42;;;;;;;4.88;100.00;91484.56;5108612;28;20050;-76
2023/12/22 08:46:42;;;;;;;54.92;25.75;;;;;;;4.85;100.00;91488.31;5109346;28;20051;-76
2023/12/22 08:49:09;;;;;;;38.10;19.40;;;;;;;4.67;100.00;91467.03;5108261;28;20048;-76
2023/12/22 08:51:36;;;;;;;46.45;23.42;;;;;;;4.86;100.00;91479.69;5108637;28;20048;-76
2023/12/22 08:54:04;;;;;;;74.05;31.92;;;;;;;4.84;100.00;91485.97;5108352;28;20048;-76
2023/12/22 08:56:32;;;;;;;87.43;37.25;;;;;;;4.82;100.00;91478.59;5101814;28;20158;-76
2023/12/22 08:58:59;;;;;;;36.83;17.40;;;;;;;4.63;100.00;91465.16;5104576;28;20434;-75
2023/12/22 09:01:26;;;;;;;21.98;12.52;;;;;;;4.78;100.00;91482.56;5107295;28;20048;-75
2023/12/22 09:03:53;;;;;;;53.28;31.95;;;;;;;4.88;100.00;91493.00;5107773;28;20040;-75
2023/12/22 09:06:22;;;;;;;52.00;30.80;;;;;;;4.86;100.00;91492.41;5108470;28;20152;-75
2023/12/22 09:08:49;;;;;;;33.33;18.65;;;;;;;4.90;100.00;91495.28;5108818;28;20056;-75
2023/12/22 09:11:18;;;;;;;11.40;7.43;;;;;;;4.77;100.00;91469.03;5103962;28;20097;-75
2023/12/22 09:13:46;;;;;;;7.15;5.43;;;;;;;5.02;100.00;91488.47;5108487;28;20523;-75
2023/12/22 09:16:14;;;;;;;8.90;5.57;;;;;;;5.15;100.00;91499.47;5107853;28;20122;-75
2023/12/22 09:18:42;;;;;;;7.93;4.47;;;;;;;5.09;100.00;91496.00;5108497;28;20058;-76
2023/12/22 09:21:09;;;;;;;10.18;6.63;;;;;;;5.01;100.00;91479.31;5107858;28;20044;-76
2023/12/22 09:23:36;;;;;;;6.10;5.13;;;;;;;5.15;100.00;91497.69;5107489;28;20047;-76
2023/12/22 09:26:04;;;;;;;8.57;4.75;;;;;;;5.22;100.00;91500.13;5107286;28;20044;-76
2023/12/22 09:28:31;;;;;;;9.90;6.78;;;;;;;5.21;100.00;91488.41;5107382;27;20091;-76
2023/12/22 09:30:59;;;;;;;6.85;5.13;;;;;;;5.02;100.00;91469.88;5107587;28;20036;-76
2023/12/22 09:33:26;;;;;;;8.32;6.50;;;;;;;5.19;100.00;91498.03;5123537;27;20054;-77
2023/12/22 09:35:53;;;;;;;9.10;5.55;;;;;;;5.16;100.00;91490.81;5138195;27;20135;-76
2023/12/22 09:38:22;;;;;;;7.47;5.35;;;;;;;5.22;100.00;91493.28;5134010;27;20391;-76
2023/12/22 09:40:49;;;;;;;11.00;7.63;;;;;;;5.27;100.00;91499.50;5135064;27;20642;-76
2023/12/22 09:43:18;;;;;;;12.77;8.20;;;;;;;5.36;100.00;91493.06;5138717;27;20047;-75
2023/12/22 09:45:46;;;;;;;20.55;11.93;;;;;;;5.37;100.00;91488.75;5135441;27;20053;-75
2023/12/22 09:48:17;;;;;;;11.25;6.43;;;;;;;5.38;100.00;91485.22;5130692;27;20051;-76
2023/12/22 09:50:45;;;;;;;11.80;8.68;;;;;;;5.41;100.00;91483.00;5132911;27;20047;-76
2023/12/22 09:53:13;;;;;;;12.02;7.80;;;;;;;5.33;100.00;91456.09;5133082;27;20054;-76
2023/12/22 09:55:41;;;;;;;10.63;7.43;;;;;;;5.47;100.00;91466.06;5136528;27;20047;-75
2023/12/22 09:58:09;;;;;;;18.73;11.48;;;;;;;5.53;100.00;91461.84;5132254;27;20054;-76
2023/12/22 10:00:36;;;;;;;23.50;14.82;;;;;;;5.57;100.00;91466.28;5134955;27;20053;-76
2023/12/22 10:03:05;;;;;;;17.30;9.98;;;;;;;5.40;100.00;91433.06;5136010;27;20069;-75
2023/12/22 10:05:34;;;;;;;13.52;8.48;;;;;;;5.67;100.00;91464.94;5132762;27;20043;-75
2023/12/22 10:08:02;;;;;;;15.18;9.15;;;;;;;5.75;100.00;91475.56;5136985;27;20035;-75
2023/12/22 10:10:30;;;;;;;18.25;11.95;;;;;;;5.78;100.00;91482.00;5130997;27;20062;-76
2023/12/22 10:12:57;;;;;;;45.63;23.15;;;;;;;5.78;100.00;91473.59;5133601;27;20050;-76
2023/12/22 10:15:24;;;;;;;88.03;42.58;;;;;;;5.82;100.00;91462.72;5141769;27;20103;-75
2023/12/22 10:17:52;;;;;;;50.92;27.17;;;;;;;5.72;100.00;91458.19;5129761;27;20043;-76
2023/12/22 10:20:19;;;;;;;34.20;20.88;;;;;;;5.68;100.00;91439.25;5136770;27;20057;-76
2023/12/22 10:22:47;;;;;;;31.05;19.15;;;;;;;5.58;100.00;91413.56;5132811;27;20038;-75
2023/12/22 10:25:17;;;;;;;86.82;45.00;;;;;;;5.81;100.00;91440.00;5133591;27;20047;-76
2023/12/22 10:27:44;;;;;;;136.98;55.08;;;;;;;5.73;100.00;91413.88;5133366;27;20084;-76
2023/12/22 10:30:12;;;;;;;41.80;21.92;;;;;;;5.62;100.00;91410.34;5132670;27;20088;-76
2023/12/22 10:32:42;;;;;;;43.75;25.10;;;;;;;5.86;100.00;91438.34;5132588;27;20047;-75
2023/12/22 10:35:09;;;;;;;30.92;15.70;;;;;;;5.86;100.00;91428.16;5130963;27;20039;-76
2023/12/22 10:37:36;;;;;;;22.73;14.60;;;;;;;5.82;100.00;91428.81;5131036;27;20056;-76
2023/12/22 10:40:09;;;;;;;15.57;10.90;;;;;;;5.83;100.00;91435.47;5133672;27;20049;-76
2023/12/22 10:42:36;;;;;;;23.60;14.80;;;;;;;5.92;100.00;91435.91;5133922;27;20084;-76
2023/12/22 10:45:04;;;;;;;15.85;10.35;;;;;;;5.89;100.00;91427.69;5131079;27;20049;-75
2023/12/22 10:47:31;;;;;;;27.23;15.35;;;;;;;5.99;100.00;91431.44;5130385;27;20508;-75
2023/12/22 10:50:02;;;;;;;16.83;10.30;;;;;;;6.06;100.00;91427.03;5130871;27;20047;-75
2023/12/22 10:52:30;;;;;;;21.67;13.38;;;;;;;6.09;100.00;91402.84;5129057;27;20406;-75
2023/12/22 10:54:58;;;;;;;19.50;11.55;;;;;;;6.20;100.00;91419.13;5134255;27;20088;-75
2023/12/22 10:57:28;;;;;;;12.05;7.85;;;;;;;6.27;100.00;91415.44;5136573;27;20049;-75
2023/12/22 10:59:57;;;;;;;9.55;7.10;;;;;;;6.15;100.00;91384.09;5132367;27;20318;-76
2023/12/22 11:02:28;;;;;;;10.90;7.15;;;;;;;6.37;100.00;91403.84;5131759;27;20047;-75
2023/12/22 11:04:58;;;;;;;9.73;6.90;;;;;;;6.36;100.00;91397.22;5133823;27;20473;-75
2023/12/22 11:07:26;;;;;;;20.98;13.02;;;;;;;6.30;100.00;91381.06;5132396;27;20054;-75
2023/12/22 11:09:57;;;;;;;30.25;17.52;;;;;;;6.52;100.00;91400.78;5128534;27;20043;-75
2023/12/22 11:12:28;;;;;;;119.20;56.95;;;;;;;6.58;100.00;91387.16;5134703;27;20434;-76
2023/12/22 11:14:57;;;;;;;225.25;100.30;;;;;;;6.65;100.00;91381.88;5131481;27;20050;-76
2023/12/22 11:17:24;;;;;;;86.13;40.13;;;;;;;6.63;100.00;91374.44;5137543;27;20057;-76
2023/12/22 11:19:51;;;;;;;60.83;27.85;;;;;;;6.59;100.00;91370.84;5135329;27;20043;-75
2023/12/22 11:22:19;;;;;;;20.30;12.07;;;;;;;6.49;100.00;91368.88;5136483;27;20055;-75
2023/12/22 11:24:47;;;;;;;20.38;9.32;;;;;;;6.50;100.00;91369.66;5129900;27;20047;-76
2023/12/22 11:27:17;;;;;;;14.27;9.25;;;;;;;6.51;100.00;91374.53;5131647;27;20053;-75
2023/12/22 11:29:49;;;;;;;19.83;10.43;;;;;;;6.56;100.00;91391.69;5134507;27;20406;-75
2023/12/22 11:32:17;;;;;;;19.95;11.93;;;;;;;6.44;100.00;91390.97;5140281;27;20411;-75